Time;durP1;ratioP1;P1;durP2;ratioP2;P2;SDS_P1;SDS_P2;PMS_P1;PMS_P2;Temp;Humidity;BMP_temperature;BMP_pressure;BME280_temperature;BME280_humidity;BME280_pressure;Samples;Min_cycle;Max_cycle;Signal;HPM_P1;HPM_P2
2023/06/22 00:00:41;;;;;;;35.25;20.90;;;;;;;16.95;100.00;101990.03;4961395;28;20145;-73
2023/06/22 00:03:30;;;;;;;34.35;21.50;;;;;;;16.94;100.00;101993.66;4949825;28;20213;-76
2023/06/22 00:06:16;;;;;;;37.65;22.65;;;;;;;16.90;100.00;101997.44;4933984;28;20039;-76
2023/06/22 00:09:03;;;;;;;38.88;23.17;;;;;;;16.88;100.00;101999.31;4953026;28;20054;-76
2023/06/22 00:11:48;;;;;;;35.80;21.75;;;;;;;16.86;100.00;101997.69;4950642;28;20062;-76
2023/06/22 00:14:34;;;;;;;37.72;22.23;;;;;;;16.82;100.00;101989.84;4950306;28;20045;-76
2023/06/22 00:17:20;;;;;;;34.58;22.58;;;;;;;16.82;100.00;101999.66;4949182;28;20046;-75
2023/06/22 00:20:08;;;;;;;36.95;22.58;;;;;;;16.80;100.00;101996.19;4951038;28;20046;-73
2023/06/22 00:22:54;;;;;;;38.40;22.02;;;;;;;16.76;100.00;102005.31;4933335;28;20145;-74
2023/06/22 00:25:40;;;;;;;38.28;22.63;;;;;;;16.70;100.00;102007.41;4951497;28;20067;-75
2023/06/22 00:28:26;;;;;;;35.13;22.88;;;;;;;16.67;100.00;102018.25;4948714;28;20465;-75
2023/06/22 00:31:12;;;;;;;36.40;22.40;;;;;;;16.64;100.00;102023.75;4949231;28;20113;-75
2023/06/22 00:33:57;;;;;;;43.03;23.58;;;;;;;16.61;100.00;102026.59;4920377;28;20047;-74
2023/06/22 00:36:43;;;;;;;35.50;22.30;;;;;;;16.61;100.00;102031.09;4951707;28;20110;-75
2023/06/22 00:39:29;;;;;;;33.60;21.38;;;;;;;16.57;100.00;102035.72;4949834;28;20050;-74
2023/06/22 00:42:15;;;;;;;36.75;22.80;;;;;;;16.58;100.00;102040.13;4951084;28;20055;-74
2023/06/22 00:45:03;;;;;;;33.92;20.85;;;;;;;16.57;100.00;102043.75;4952387;28;20070;-74
2023/06/22 00:47:57;;;;;;;29.23;19.10;;;;;;;16.58;100.00;102040.13;4949828;28;20133;-74
2023/06/22 00:50:42;;;;;;;28.23;18.38;;;;;;;16.62;100.00;102035.47;4937921;28;20046;-74
2023/06/22 00:53:28;;;;;;;29.67;18.45;;;;;;;16.67;100.00;102039.63;4933993;28;20063;-75
2023/06/22 00:56:19;;;;;;;27.58;18.50;;;;;;;16.73;100.00;102041.13;4936284;28;20050;-74
2023/06/22 00:59:05;;;;;;;27.55;17.90;;;;;;;16.76;100.00;102040.97;4933714;28;20070;-74
2023/06/22 01:01:50;;;;;;;28.27;18.83;;;;;;;16.77;100.00;102042.69;4965661;28;20836;-75
2023/06/22 01:04:38;;;;;;;32.13;20.67;;;;;;;16.77;100.00;102034.66;4941724;28;20141;-75
2023/06/22 01:07:30;;;;;;;32.30;21.00;;;;;;;16.79;100.00;102034.59;4954032;28;20745;-75
2023/06/22 01:10:30;;;;;;;31.95;21.65;;;;;;;16.81;100.00;102027.34;4969925;28;20041;-74
2023/06/22 01:13:24;;;;;;;32.42;21.58;;;;;;;16.83;100.00;102028.13;4966389;28;20038;-74
2023/06/22 01:16:30;;;;;;;38.00;22.48;;;;;;;16.87;100.00;102029.69;4968156;28;20071;-74
2023/06/22 01:19:32;;;;;;;35.33;22.38;;;;;;;16.87;100.00;102019.00;4955463;28;20097;-74
2023/06/22 01:22:19;;;;;;;33.65;22.25;;;;;;;16.88;100.00;102025.22;4953401;28;20070;-74
2023/06/22 01:25:10;;;;;;;38.42;21.73;;;;;;;16.84;100.00;102020.03;4956562;28;20116;-74
2023/06/22 01:28:14;;;;;;;36.85;23.20;;;;;;;16.81;100.00;102019.31;4967408;28;20074;-74
2023/06/22 01:31:05;;;;;;;34.90;21.63;;;;;;;16.78;100.00;102025.69;4968223;28;20030;-74
2023/06/22 01:33:57;;;;;;;30.85;20.80;;;;;;;16.75;100.00;102019.66;4954885;28;20556;-74
2023/06/22 01:36:43;;;;;;;30.70;19.47;;;;;;;16.70;100.00;102010.06;4967853;28;20049;-74
2023/06/22 01:39:29;;;;;;;28.05;19.58;;;;;;;16.66;100.00;102005.81;4951482;28;20038;-74
2023/06/22 01:42:16;;;;;;;33.85;22.25;;;;;;;16.67;100.00;102012.06;4952508;28;20038;-74
2023/06/22 01:45:02;;;;;;;33.20;21.92;;;;;;;16.65;100.00;102008.56;4955951;28;20050;-74
2023/06/22 01:47:48;;;;;;;33.50;22.75;;;;;;;16.60;100.00;102005.31;4947416;28;20101;-75
2023/06/22 01:50:40;;;;;;;37.63;24.33;;;;;;;16.58;100.00;102001.81;4954571;28;20034;-74
2023/06/22 01:53:26;;;;;;;38.08;23.70;;;;;;;16.53;100.00;102004.75;4972720;28;20030;-74
2023/06/22 01:56:12;;;;;;;32.95;22.20;;;;;;;16.49;100.00;102003.16;4957900;28;20413;-74
2023/06/22 01:59:29;;;;;;;35.78;23.23;;;;;;;16.45;100.00;102002.47;4953801;28;20043;-74
2023/06/22 02:02:17;;;;;;;34.53;22.88;;;;;;;16.43;100.00;102004.34;4958311;28;20054;-74
2023/06/22 02:05:06;;;;;;;33.80;22.05;;;;;;;16.44;100.00;102003.41;4973132;28;20039;-74
2023/06/22 02:07:55;;;;;;;36.78;22.67;;;;;;;16.43;100.00;101999.00;4956218;28;20403;-74
2023/06/22 02:10:42;;;;;;;35.20;23.17;;;;;;;16.43;100.00;101996.34;4969249;28;20069;-74
2023/06/22 02:13:28;;;;;;;36.75;22.85;;;;;;;16.40;100.00;101994.69;4972074;28;20050;-74
2023/06/22 02:16:15;;;;;;;37.72;23.40;;;;;;;16.39;100.00;101998.31;4973084;28;20080;-75
2023/06/22 02:19:06;;;;;;;31.30;21.10;;;;;;;16.40;100.00;102000.03;4959614;28;20052;-74
2023/06/22 02:21:51;;;;;;;34.17;21.13;;;;;;;16.37;100.00;102005.56;4960478;28;20561;-74
2023/06/22 02:24:37;;;;;;;33.28;20.30;;;;;;;16.35;100.00;101991.38;4970764;28;20043;-74
2023/06/22 02:27:23;;;;;;;35.80;22.85;;;;;;;16.33;100.00;101993.28;4975046;28;20038;-74
2023/06/22 02:30:09;;;;;;;35.80;22.15;;;;;;;16.32;100.00;101990.69;4969937;28;20130;-74
2023/06/22 02:32:58;;;;;;;37.40;23.35;;;;;;;16.30;100.00;101990.78;4967205;28;20124;-74
2023/06/22 02:35:47;;;;;;;38.25;23.90;;;;;;;16.31;100.00;101988.94;4969588;28;20136;-74
2023/06/22 02:38:34;;;;;;;37.90;23.13;;;;;;;16.31;100.00;101981.81;4954967;28;20050;-74
2023/06/22 02:41:20;;;;;;;37.42;23.58;;;;;;;16.32;100.00;101985.34;4970268;28;20050;-74
2023/06/22 02:44:06;;;;;;;38.17;23.73;;;;;;;16.32;100.00;101986.22;4974025;28;20058;-74
2023/06/22 02:46:52;;;;;;;37.38;23.38;;;;;;;16.33;100.00;101987.94;4945748;28;20113;-74
2023/06/22 02:49:37;;;;;;;38.55;22.88;;;;;;;16.34;100.00;101994.16;4970697;28;20129;-74
2023/06/22 02:52:23;;;;;;;37.22;23.20;;;;;;;16.32;100.00;101991.56;4959632;28;20141;-74
2023/06/22 02:55:09;;;;;;;27.45;18.75;;;;;;;16.31;100.00;101996.97;4944815;28;20054;-74
2023/06/22 02:57:57;;;;;;;20.33;14.93;;;;;;;16.20;100.00;101992.19;4972097;28;20049;-74
2023/06/22 03:00:43;;;;;;;20.73;14.32;;;;;;;16.04;100.00;102000.09;4952747;28;20081;-74
2023/06/22 03:03:28;;;;;;;21.63;12.90;;;;;;;15.92;100.00;102010.47;4952761;28;20039;-74
2023/06/22 03:06:14;;;;;;;19.75;13.48;;;;;;;15.87;100.00;102007.13;4954441;28;20429;-74
2023/06/22 03:09:01;;;;;;;16.00;13.18;;;;;;;15.85;100.00;102001.00;4957741;28;20117;-74
2023/06/22 03:11:47;;;;;;;15.52;13.20;;;;;;;15.82;100.00;101993.13;4956020;28;20385;-74
2023/06/22 03:14:33;;;;;;;19.30;15.38;;;;;;;15.78;100.00;101989.75;4955524;28;21555;-74
2023/06/22 03:17:18;;;;;;;21.58;16.25;;;;;;;15.70;100.00;101992.78;4960819;28;20055;-74
2023/06/22 03:20:09;;;;;;;19.88;15.20;;;;;;;15.68;100.00;101994.69;4958880;28;20469;-74
2023/06/22 03:22:54;;;;;;;22.92;16.88;;;;;;;15.66;100.00;102001.03;4955065;28;20053;-74
2023/06/22 03:25:44;;;;;;;19.70;16.30;;;;;;;15.55;100.00;101996.22;4955356;28;20050;-74
2023/06/22 03:28:30;;;;;;;24.58;16.75;;;;;;;15.48;100.00;101987.66;4947666;28;20600;-74
2023/06/22 03:31:16;;;;;;;22.80;17.50;;;;;;;15.46;100.00;101992.19;4957599;28;20071;-74
2023/06/22 03:34:01;;;;;;;22.33;17.10;;;;;;;15.46;100.00;101995.72;4954500;28;20046;-74
2023/06/22 03:36:47;;;;;;;21.85;17.35;;;;;;;15.45;100.00;102002.00;4956855;28;20051;-74
2023/06/22 03:39:35;;;;;;;25.35;18.20;;;;;;;15.42;100.00;101994.13;4970888;28;20054;-74
2023/06/22 03:42:21;;;;;;;25.83;17.95;;;;;;;15.42;100.00;101993.28;4974613;28;20081;-74
2023/06/22 03:45:07;;;;;;;26.65;18.67;;;;;;;15.39;100.00;101986.28;4976712;28;20068;-74
2023/06/22 03:47:53;;;;;;;23.48;18.17;;;;;;;15.32;100.00;101985.69;4931749;28;20619;-74
2023/06/22 03:50:39;;;;;;;26.83;17.52;;;;;;;15.29;100.00;101984.97;4955858;28;20161;-74
2023/06/22 03:53:25;;;;;;;20.75;17.13;;;;;;;15.15;100.00;101977.66;4958480;28;20168;-74
2023/06/22 03:56:10;;;;;;;19.80;16.52;;;;;;;15.11;100.00;101986.72;4976024;28;20520;-74
2023/06/22 03:58:56;;;;;;;27.33;18.35;;;;;;;15.06;100.00;101989.59;4970816;28;20057;-74
2023/06/22 04:01:42;;;;;;;20.63;15.68;;;;;;;14.99;100.00;101990.81;4965394;28;20046;-74
2023/06/22 04:04:28;;;;;;;19.17;15.70;;;;;;;14.90;100.00;101989.44;4969220;28;20046;-74
2023/06/22 04:07:14;;;;;;;23.45;15.43;;;;;;;14.80;100.00;101983.66;4944251;28;20572;-74
2023/06/22 04:10:00;;;;;;;20.08;15.50;;;;;;;14.78;100.00;101991.72;4970946;28;20109;-74
2023/06/22 04:12:45;;;;;;;21.92;15.43;;;;;;;14.79;100.00;101990.81;4974595;28;20542;-74
2023/06/22 04:15:31;;;;;;;21.55;16.15;;;;;;;14.79;100.00;101989.94;4955742;28;20576;-73
2023/06/22 04:18:17;;;;;;;20.33;16.30;;;;;;;14.82;100.00;101991.59;4959227;28;22086;-74
2023/06/22 04:21:04;;;;;;;20.10;16.90;;;;;;;14.87;100.00;102001.09;4948900;28;20061;-74
2023/06/22 04:23:50;;;;;;;18.00;15.52;;;;;;;14.82;100.00;101994.25;4973778;28;20149;-74
2023/06/22 04:26:37;;;;;;;19.55;16.25;;;;;;;14.85;100.00;101991.44;4955177;28;20057;-74
2023/06/22 04:29:28;;;;;;;20.73;16.42;;;;;;;14.84;100.00;101981.72;4956585;28;20117;-74
2023/06/22 04:32:20;;;;;;;22.30;16.77;;;;;;;14.89;100.00;101974.38;4974524;28;20124;-74
2023/06/22 04:35:06;;;;;;;21.42;17.02;;;;;;;14.92;100.00;101977.78;4969137;28;20116;-74
2023/06/22 04:37:54;;;;;;;23.48;18.10;;;;;;;14.94;100.00;101975.03;4955888;28;20192;-74
2023/06/22 04:40:40;;;;;;;21.63;17.80;;;;;;;14.94;100.00;101980.38;4959243;28;20052;-74
2023/06/22 04:43:30;;;;;;;22.25;17.92;;;;;;;14.94;100.00;101975.88;4959558;28;20484;-74
2023/06/22 04:46:15;;;;;;;22.33;17.08;;;;;;;15.01;100.00;101965.81;4975372;28;20042;-74
2023/06/22 04:49:01;;;;;;;24.95;18.30;;;;;;;15.03;100.00;101971.94;4968110;28;20136;-74
2023/06/22 04:51:48;;;;;;;23.50;18.42;;;;;;;15.04;100.00;101965.66;4969279;28;20149;-74
2023/06/22 04:54:34;;;;;;;22.83;18.15;;;;;;;15.13;100.00;101974.16;4957885;28;20493;-74
2023/06/22 04:57:20;;;;;;;22.55;17.73;;;;;;;15.19;100.00;101976.53;4957500;28;20050;-74
2023/06/22 05:00:17;;;;;;;21.77;16.95;;;;;;;15.21;100.00;101980.03;4965492;28;20131;-74
2023/06/22 05:03:03;;;;;;;23.50;17.75;;;;;;;15.30;100.00;101982.25;4975387;28;20050;-74
2023/06/22 05:05:49;;;;;;;20.95;17.30;;;;;;;15.34;100.00;101977.63;4971212;28;20050;-74
2023/06/22 05:08:35;;;;;;;23.13;18.73;;;;;;;15.43;100.00;101981.66;4968044;28;20058;-74
2023/06/22 05:11:20;;;;;;;22.88;18.42;;;;;;;15.55;100.00;101975.75;4956942;28;20038;-73
2023/06/22 05:14:07;;;;;;;24.60;18.55;;;;;;;15.64;100.00;101976.22;4968715;28;20642;-74
2023/06/22 05:16:53;;;;;;;24.63;19.45;;;;;;;15.76;100.00;101978.31;4973981;28;20054;-75
2023/06/22 05:19:39;;;;;;;25.95;19.08;;;;;;;15.87;100.00;101967.94;4956265;28;20832;-74
2023/06/22 05:22:25;;;;;;;26.70;19.83;;;;;;;15.98;100.00;101978.13;4959740;28;20116;-74
2023/06/22 05:25:11;;;;;;;27.63;20.38;;;;;;;16.14;100.00;101975.50;4957686;28;20067;-74
2023/06/22 05:28:00;;;;;;;25.65;19.73;;;;;;;16.28;100.00;101973.94;4951667;28;20117;-73
2023/06/22 05:30:46;;;;;;;24.75;19.83;;;;;;;16.41;100.00;101976.84;4974336;28;20136;-74
2023/06/22 05:33:32;;;;;;;25.52;19.55;;;;;;;16.50;100.00;101978.19;4968875;28;20081;-74
2023/06/22 05:36:19;;;;;;;25.45;19.25;;;;;;;16.59;100.00;101969.66;4968593;28;20065;-74
2023/06/22 05:39:15;;;;;;;25.65;18.48;;;;;;;16.76;100.00;101968.78;4976491;28;20034;-74
2023/06/22 05:42:00;;;;;;;28.95;19.50;;;;;;;16.94;100.00;101969.56;4962679;28;20047;-74
2023/06/22 05:44:47;;;;;;;28.52;19.50;;;;;;;17.16;100.00;101970.25;4966241;28;20039;-74
2023/06/22 05:47:32;;;;;;;35.25;21.23;;;;;;;17.40;100.00;101978.72;4973695;28;20046;-73
2023/06/22 05:50:18;;;;;;;30.77;19.77;;;;;;;17.61;100.00;101970.41;4971188;28;20344;-74
2023/06/22 05:53:06;;;;;;;25.48;18.33;;;;;;;17.83;100.00;101979.84;4976415;28;20369;-74
2023/06/22 05:55:52;;;;;;;28.48;19.17;;;;;;;18.04;100.00;101978.59;4960758;28;20068;-74
2023/06/22 05:58:38;;;;;;;31.20;19.45;;;;;;;18.23;100.00;101979.34;4961391;28;20054;-74
2023/06/22 06:01:25;;;;;;;26.70;18.38;;;;;;;18.38;100.00;101977.56;4963097;28;20721;-74
2023/06/22 06:04:11;;;;;;;25.55;17.75;;;;;;;18.49;100.00;101975.09;4967594;28;20097;-74
2023/06/22 06:07:01;;;;;;;24.17;17.63;;;;;;;18.58;100.00;101974.50;4968793;28;20589;-74
2023/06/22 06:09:47;;;;;;;24.95;17.50;;;;;;;18.65;100.00;101968.75;4939427;28;20158;-73
2023/06/22 06:12:33;;;;;;;24.27;17.30;;;;;;;18.69;100.00;101971.16;4970238;28;20564;-74
2023/06/22 06:15:19;;;;;;;25.17;17.58;;;;;;;18.73;100.00;101971.81;4942463;28;20038;-75
2023/06/22 06:18:06;;;;;;;20.88;15.77;;;;;;;18.80;100.00;101978.53;4966471;28;20117;-75
2023/06/22 06:20:51;;;;;;;23.75;16.38;;;;;;;18.79;100.00;101987.53;4956430;28;20047;-75
2023/06/22 06:23:37;;;;;;;23.05;16.83;;;;;;;18.71;100.00;101990.72;4961397;28;20074;-76
2023/06/22 06:26:29;;;;;;;24.17;17.77;;;;;;;18.77;100.00;102002.88;4959692;28;20046;-76
2023/06/22 06:29:16;;;;;;;29.73;19.85;;;;;;;18.81;100.00;101993.69;4953137;28;20046;-76
2023/06/22 06:32:02;;;;;;;28.88;19.50;;;;;;;18.89;100.00;101993.19;4970736;28;20490;-76
2023/06/22 06:34:48;;;;;;;31.17;20.33;;;;;;;18.99;100.00;101980.94;4967976;28;20113;-77
2023/06/22 06:37:38;;;;;;;27.83;20.02;;;;;;;19.11;100.00;101987.38;4953407;28;20071;-76
2023/06/22 06:40:24;;;;;;;30.35;19.27;;;;;;;19.23;100.00;101982.19;4971690;28;20444;-76
2023/06/22 06:43:10;;;;;;;27.15;20.55;;;;;;;19.34;100.00;101984.16;4967673;28;20137;-77
2023/06/22 06:45:56;;;;;;;27.95;19.80;;;;;;;19.33;100.00;101977.94;4947894;28;20050;-77
2023/06/22 06:48:42;;;;;;;29.80;19.50;;;;;;;19.27;100.00;101981.88;4963167;28;20088;-77
2023/06/22 06:51:28;;;;;;;26.50;19.00;;;;;;;19.32;100.00;101981.56;4967088;28;20046;-76
2023/06/22 06:54:14;;;;;;;28.45;20.17;;;;;;;19.44;100.00;101981.75;4955963;28;20228;-75
2023/06/22 06:56:59;;;;;;;29.33;18.23;;;;;;;19.48;100.00;101975.19;4976109;28;20121;-75
2023/06/22 06:59:46;;;;;;;27.83;19.13;;;;;;;19.62;100.00;101975.16;4966814;28;20070;-76
2023/06/22 07:02:31;;;;;;;24.27;17.58;;;;;;;19.80;100.00;101982.94;4955599;28;20057;-76
2023/06/22 07:05:17;;;;;;;26.33;18.73;;;;;;;19.95;100.00;101981.09;4951860;28;20156;-80
2023/06/22 07:08:03;;;;;;;24.98;17.83;;;;;;;20.06;100.00;101985.75;4973153;28;20401;-76
2023/06/22 07:10:49;;;;;;;24.33;17.38;;;;;;;20.28;100.00;101989.66;4973139;28;20046;-81
2023/06/22 07:13:38;;;;;;;25.50;18.17;;;;;;;20.40;100.00;101988.81;4959580;28;20240;-74
2023/06/22 07:16:25;;;;;;;24.92;18.02;;;;;;;20.46;100.00;101991.06;4962714;28;20094;-75
2023/06/22 07:19:12;;;;;;;25.38;17.17;;;;;;;20.67;100.00;101993.22;4977831;28;20654;-75
2023/06/22 07:21:58;;;;;;;23.88;16.25;;;;;;;20.94;100.00;101986.88;4960668;28;20046;-75
2023/06/22 07:24:46;;;;;;;24.80;17.00;;;;;;;21.20;100.00;101986.81;4959974;28;22222;-74
2023/06/22 07:27:42;;;;;;;21.40;15.52;;;;;;;21.38;100.00;101976.53;4977491;28;20058;-76
2023/06/22 07:30:29;;;;;;;20.17;14.40;;;;;;;21.42;100.00;101969.91;4957554;28;20121;-73
2023/06/22 07:33:15;;;;;;;20.65;14.02;;;;;;;21.56;100.00;101970.72;4977252;28;20050;-79
2023/06/22 07:36:02;;;;;;;16.95;12.48;;;;;;;21.70;100.00;101961.66;4960265;28;20097;-77
2023/06/22 07:38:48;;;;;;;16.70;12.35;;;;;;;21.73;100.00;101961.41;4959460;28;20089;-76
2023/06/22 07:41:36;;;;;;;16.90;11.90;;;;;;;21.81;100.00;101953.63;4976270;28;20047;-76
2023/06/22 07:44:22;;;;;;;14.52;11.05;;;;;;;21.97;100.00;101963.22;4971460;28;20058;-77
2023/06/22 07:47:08;;;;;;;18.30;13.10;;;;;;;22.13;100.00;101962.03;4976937;28;20053;-76
2023/06/22 07:50:02;;;;;;;16.30;12.07;;;;;;;22.22;100.00;101953.25;4975553;28;20061;-76
2023/06/22 07:52:48;;;;;;;17.83;11.80;;;;;;;22.25;100.00;101950.28;4975128;28;20038;-76
2023/06/22 07:55:33;;;;;;;15.98;11.70;;;;;;;22.35;100.00;101950.44;4977238;28;20066;-77
2023/06/22 07:58:20;;;;;;;16.58;11.60;;;;;;;22.42;100.00;101946.28;4961363;28;20070;-77
2023/06/22 08:01:06;;;;;;;14.82;9.68;;;;;;;22.56;100.00;101953.31;4958476;28;21181;-77
2023/06/22 08:03:52;;;;;;;16.23;10.70;;;;;;;22.71;100.00;101942.28;4961296;28;20588;-77
2023/06/22 08:06:37;;;;;;;16.10;11.00;;;;;;;22.86;100.00;101956.34;4974687;28;20034;-74
2023/06/22 08:09:35;;;;;;;17.20;11.77;;;;;;;23.01;100.00;101949.72;4959834;28;20054;-74
2023/06/22 08:12:21;;;;;;;15.77;11.00;;;;;;;23.22;100.00;101945.38;4962332;28;20815;-74
2023/06/22 08:15:07;;;;;;;12.77;9.57;;;;;;;23.25;100.00;101939.75;4974997;28;20072;-74
2023/06/22 08:17:53;;;;;;;12.73;9.50;;;;;;;23.28;100.00;101945.75;4976603;28;20053;-74
2023/06/22 08:20:39;;;;;;;13.77;9.30;;;;;;;23.37;100.00;101946.84;4961499;28;20563;-74
2023/06/22 08:23:24;;;;;;;15.40;9.32;;;;;;;23.33;100.00;101948.09;4974781;28;20034;-74
2023/06/22 08:26:10;;;;;;;12.88;9.18;;;;;;;23.42;100.00;101941.91;4975421;28;20057;-74
2023/06/22 08:28:56;;;;;;;12.18;8.57;;;;;;;23.54;100.00;101948.13;4976012;28;20048;-74
2023/06/22 08:31:41;;;;;;;14.43;9.70;;;;;;;23.67;100.00;101947.97;4959425;28;20143;-74
2023/06/22 08:34:30;;;;;;;11.55;8.57;;;;;;;23.71;100.00;101951.28;4973924;28;20061;-74
2023/06/22 08:37:16;;;;;;;11.27;7.38;;;;;;;23.71;100.00;101944.00;4975081;28;20481;-74
2023/06/22 08:40:05;;;;;;;11.40;7.43;;;;;;;23.73;100.00;101947.44;4975164;28;20550;-75
2023/06/22 08:42:51;;;;;;;9.63;6.45;;;;;;;23.82;100.00;101944.94;4954493;28;20703;-80
2023/06/22 08:45:36;;;;;;;9.00;7.15;;;;;;;23.79;99.81;101940.66;4942358;28;20045;-80
2023/06/22 08:48:22;;;;;;;9.63;7.15;;;;;;;23.82;99.74;101947.66;4958749;28;20045;-80
2023/06/22 08:51:08;;;;;;;12.88;8.10;;;;;;;23.89;100.00;101938.03;4975792;28;20113;-80
2023/06/22 08:53:54;;;;;;;9.60;7.15;;;;;;;24.16;100.00;101944.78;4959999;28;20046;-80
2023/06/22 08:56:40;;;;;;;8.05;5.25;;;;;;;24.41;99.71;101932.66;4942571;28;20064;-81
2023/06/22 08:59:29;;;;;;;12.55;8.52;;;;;;;24.44;97.86;101928.84;4976669;28;20045;-82
2023/06/22 09:02:15;;;;;;;11.80;8.27;;;;;;;24.43;99.55;101927.13;4958289;28;20537;-80
2023/06/22 09:05:03;;;;;;;11.25;8.55;;;;;;;24.55;98.12;101931.47;4951913;28;20083;-81
2023/06/22 09:07:49;;;;;;;9.38;6.95;;;;;;;24.58;97.55;101927.63;4933200;28;20302;-80
2023/06/22 09:10:35;;;;;;;8.07;5.97;;;;;;;24.57;95.96;101927.75;4952979;28;20050;-79
2023/06/22 09:13:22;;;;;;;10.48;7.55;;;;;;;24.63;95.50;101916.38;4951167;28;20425;-81
2023/06/22 09:16:11;;;;;;;9.15;6.35;;;;;;;24.80;95.48;101909.50;4937473;28;20031;-81
2023/06/22 09:19:00;;;;;;;9.10;7.03;;;;;;;24.90;91.79;101912.22;4948993;28;20042;-81
2023/06/22 09:21:46;;;;;;;8.90;6.93;;;;;;;24.95;93.53;101908.09;4948447;28;20062;-80
2023/06/22 09:24:33;;;;;;;11.30;7.93;;;;;;;25.07;91.23;101900.69;4947180;28;20387;-81
2023/06/22 09:27:18;;;;;;;10.10;7.22;;;;;;;24.92;91.20;101899.41;4930952;28;20051;-84
2023/06/22 09:30:05;;;;;;;8.38;5.50;;;;;;;24.97;89.47;101896.25;4934011;28;20117;-81
2023/06/22 09:32:51;;;;;;;9.48;7.32;;;;;;;25.17;88.64;101899.88;4932077;28;20158;-80
2023/06/22 09:35:36;;;;;;;11.98;8.60;;;;;;;25.17;87.27;101902.59;4953991;28;20039;-78
2023/06/22 09:38:22;;;;;;;11.20;8.40;;;;;;;24.99;86.54;101899.72;4954223;28;20050;-79
2023/06/22 09:41:08;;;;;;;9.82;7.53;;;;;;;24.89;87.04;101899.69;4936876;28;20057;-79
2023/06/22 09:43:54;;;;;;;10.77;7.50;;;;;;;24.95;85.50;101909.97;4952205;28;20047;-79
2023/06/22 09:46:39;;;;;;;10.63;7.47;;;;;;;24.95;85.77;101909.97;4940712;28;20055;-79
2023/06/22 09:49:25;;;;;;;14.05;8.05;;;;;;;24.98;84.33;101895.25;4953666;28;20051;-79
2023/06/22 09:52:11;;;;;;;12.38;8.02;;;;;;;24.96;83.89;101890.00;4939357;28;20050;-79
2023/06/22 09:55:00;;;;;;;9.57;7.45;;;;;;;24.98;84.12;101896.13;4953401;28;20066;-80
2023/06/22 09:57:45;;;;;;;10.20;6.93;;;;;;;25.10;82.74;101894.16;4952456;28;20576;-80
2023/06/22 10:00:31;;;;;;;10.50;7.20;;;;;;;25.21;82.79;101896.75;4936451;28;20043;-79
2023/06/22 10:03:17;;;;;;;10.35;8.05;;;;;;;25.24;81.90;101895.59;4966619;28;20050;-80
2023/06/22 10:06:03;;;;;;;9.82;7.20;;;;;;;25.13;82.45;101893.88;4940342;28;20414;-76
2023/06/22 10:08:52;;;;;;;10.98;7.55;;;;;;;25.17;80.54;101887.16;4952803;28;20619;-78
2023/06/22 10:11:38;;;;;;;10.35;7.43;;;;;;;25.29;82.72;101881.63;4952466;28;20057;-79
2023/06/22 10:14:24;;;;;;;10.23;7.78;;;;;;;25.34;81.76;101884.78;4961426;28;20046;-78
2023/06/22 10:17:10;;;;;;;10.75;7.85;;;;;;;25.26;82.26;101880.06;4958196;28;20043;-73
2023/06/22 10:19:56;;;;;;;8.98;6.25;;;;;;;25.23;80.58;101875.78;4955261;28;20390;-73
2023/06/22 10:22:44;;;;;;;12.15;7.55;;;;;;;25.34;81.53;101872.06;4977237;28;20045;-72
2023/06/22 10:25:30;;;;;;;7.10;6.03;;;;;;;25.35;81.16;101871.09;4934732;28;20497;-73
2023/06/22 10:28:15;;;;;;;7.32;5.82;;;;;;;25.44;79.91;101860.38;4973878;28;20046;-73
2023/06/22 10:31:01;;;;;;;9.43;6.70;;;;;;;25.53;80.09;101864.97;4974587;28;20038;-73
2023/06/22 10:33:49;;;;;;;6.90;5.47;;;;;;;25.63;78.93;101864.94;4972816;28;20449;-73
2023/06/22 10:36:35;;;;;;;10.77;6.82;;;;;;;25.52;78.56;101862.34;4942370;28;20086;-73
2023/06/22 10:39:20;;;;;;;10.07;7.70;;;;;;;25.52;79.29;101862.34;4964114;28;20050;-73
2023/06/22 10:42:07;;;;;;;11.52;6.93;;;;;;;25.46;77.21;101852.94;4969277;28;20497;-74
2023/06/22 10:44:52;;;;;;;9.82;7.00;;;;;;;25.43;78.46;101858.69;4967343;28;20053;-74
2023/06/22 10:47:39;;;;;;;10.23;7.95;;;;;;;25.49;78.62;101858.09;4955761;28;20038;-74
2023/06/22 10:50:25;;;;;;;10.52;7.53;;;;;;;25.58;78.24;101853.69;4955358;28;20962;-74
2023/06/22 10:53:11;;;;;;;9.52;7.45;;;;;;;25.61;75.59;101853.41;4966595;28;20054;-74
2023/06/22 10:55:57;;;;;;;10.45;8.40;;;;;;;25.57;77.26;101855.56;4967485;28;20053;-74
2023/06/22 10:58:44;;;;;;;9.85;6.72;;;;;;;25.63;75.19;101860.41;4953180;28;20137;-74
2023/06/22 11:01:31;;;;;;;11.98;7.47;;;;;;;25.55;73.70;101846.69;4967782;28;20162;-74
2023/06/22 11:04:17;;;;;;;7.00;5.03;;;;;;;25.50;73.92;101844.38;4968878;28;20043;-73
2023/06/22 11:07:03;;;;;;;6.20;5.10;;;;;;;25.52;72.54;101844.28;4968694;28;20047;-73
2023/06/22 11:09:49;;;;;;;6.43;5.32;;;;;;;25.55;73.92;101840.44;4969894;28;20038;-73
2023/06/22 11:12:34;;;;;;;6.65;4.30;;;;;;;25.47;71.99;101838.41;4970405;28;20039;-73
2023/06/22 11:15:24;;;;;;;6.55;5.03;;;;;;;25.38;70.57;101839.28;4966060;28;20046;-73
2023/06/22 11:18:10;;;;;;;5.97;3.95;;;;;;;25.33;70.62;101840.53;4967063;28;20054;-73
2023/06/22 11:20:55;;;;;;;4.63;3.25;;;;;;;25.27;69.89;101845.69;4969985;28;20054;-73
2023/06/22 11:23:42;;;;;;;6.00;4.28;;;;;;;25.31;70.79;101845.25;4967478;28;20520;-73
2023/06/22 11:26:28;;;;;;;5.70;4.47;;;;;;;25.44;71.71;101844.13;4966793;28;20065;-73
2023/06/22 11:29:13;;;;;;;6.20;4.03;;;;;;;25.58;71.01;101843.69;4958350;28;20042;-73
2023/06/22 11:31:59;;;;;;;5.03;3.90;;;;;;;25.72;70.20;101844.25;4953503;28;21692;-73
2023/06/22 11:34:45;;;;;;;7.85;4.63;;;;;;;25.77;70.64;101839.25;4969399;28;20133;-73
2023/06/22 11:37:33;;;;;;;6.22;4.20;;;;;;;25.83;69.75;101846.81;4969996;28;20121;-73
2023/06/22 11:40:19;;;;;;;6.97;4.13;;;;;;;25.78;68.51;101840.97;4955913;28;20073;-73
2023/06/22 11:43:05;;;;;;;7.40;4.50;;;;;;;25.68;69.46;101840.09;4964987;28;20039;-73
2023/06/22 11:45:51;;;;;;;5.78;4.20;;;;;;;25.71;70.11;101829.00;4956970;28;20049;-74
2023/06/22 11:48:40;;;;;;;4.72;3.67;;;;;;;25.70;69.01;101828.13;4968655;28;20046;-74
2023/06/22 11:51:26;;;;;;;6.03;3.70;;;;;;;25.60;68.94;101830.84;4971989;28;20042;-73
2023/06/22 11:54:11;;;;;;;5.32;3.80;;;;;;;25.53;69.36;101821.59;4970149;28;20045;-73
2023/06/22 11:56:58;;;;;;;5.82;4.25;;;;;;;25.36;67.79;101823.16;4956720;28;20125;-73
2023/06/22 11:59:43;;;;;;;5.45;3.75;;;;;;;25.17;68.35;101821.31;4957857;28;20421;-72
2023/06/22 12:02:29;;;;;;;4.97;3.65;;;;;;;25.09;68.30;101814.75;4969503;28;20050;-73
2023/06/22 12:05:15;;;;;;;5.00;3.38;;;;;;;24.95;67.26;101826.03;4972756;28;20070;-74
2023/06/22 12:08:01;;;;;;;5.03;3.90;;;;;;;24.87;68.56;101817.72;4972812;28;20047;-73
2023/06/22 12:10:46;;;;;;;5.60;4.53;;;;;;;24.86;68.92;101816.00;4974380;28;20027;-73
2023/06/22 12:13:32;;;;;;;8.55;5.60;;;;;;;24.78;69.59;101814.84;4964745;28;20109;-73
2023/06/22 12:16:21;;;;;;;6.43;5.15;;;;;;;24.74;69.20;101805.31;4954138;28;20050;-80
2023/06/22 12:19:07;;;;;;;7.28;5.13;;;;;;;24.73;71.08;101810.84;4943828;28;20125;-81
2023/06/22 12:21:53;;;;;;;5.57;4.53;;;;;;;24.76;72.30;101808.72;4961733;28;20154;-81
2023/06/22 12:24:56;;;;;;;5.55;4.07;;;;;;;24.71;74.60;101807.44;5054519;27;1288232;-79
2023/06/22 12:27:45;;;;;;;7.30;4.18;;;;;;;24.61;74.68;101796.59;5085907;28;20633;-80
2023/06/22 12:30:32;;;;;;;6.78;4.00;;;;;;;24.58;76.10;101796.84;5070972;28;20139;-80
2023/06/22 12:33:18;;;;;;;5.32;3.78;;;;;;;24.45;76.25;101789.84;5071394;28;20040;-79
2023/06/22 12:36:04;;;;;;;6.63;4.53;;;;;;;24.42;77.14;101787.44;5052758;28;20036;-80
2023/06/22 12:38:51;;;;;;;4.78;3.22;;;;;;;24.38;77.75;101794.09;5084834;28;20051;-74